Time;durP1;ratioP1;P1;durP2;ratioP2;P2;SDS_P1;SDS_P2;PMS_P1;PMS_P2;Temp;Humidity;BMP_temperature;BMP_pressure;BME280_temperature;BME280_humidity;BME280_pressure;Samples;Min_cycle;Max_cycle;Signal;HPM_P1;HPM_P2
2021/01/10 00:02:30;;;;;;;47.67;28.95;;;;;;;;;;5097004;28;20035;-87
2021/01/10 00:05:04;;;;;;;49.17;29.38;;;;;;;;;;5097457;28;20020;-87
2021/01/10 00:07:37;;;;;;;43.67;28.33;;;;;;;;;;5097630;28;20099;-87
2021/01/10 00:10:06;;;;;;;40.00;26.38;;;;;;;;;;5097093;28;20044;-87
2021/01/10 00:12:42;;;;;;;44.30;26.20;;;;;;;;;;5100544;28;20036;-88
2021/01/10 00:15:13;;;;;;;40.15;26.52;;;;;;;;;;5100606;28;20055;-86
2021/01/10 00:17:57;;;;;;;48.10;28.27;;;;;;;;;;5100012;28;20028;-87
2021/01/10 00:20:28;;;;;;;49.53;29.60;;;;;;;;;;5101390;28;20027;-87
2021/01/10 00:22:58;;;;;;;47.70;28.80;;;;;;;;;;5101286;28;20077;-87
2021/01/10 00:25:29;;;;;;;50.88;28.33;;;;;;;;;;5100592;28;20122;-87
2021/01/10 00:27:59;;;;;;;52.55;29.80;;;;;;;;;;5101650;28;20028;-87
2021/01/10 00:30:26;;;;;;;52.35;30.33;;;;;;;;;;5100727;28;20031;-87
2021/01/10 00:32:54;;;;;;;43.08;27.33;;;;;;;;;;5100391;28;20028;-87
2021/01/10 00:35:25;;;;;;;49.28;28.13;;;;;;;;;;5099865;28;20059;-87
2021/01/10 00:37:59;;;;;;;52.55;27.27;;;;;;;;;;5099661;28;20115;-87
2021/01/10 00:40:37;;;;;;;49.97;29.95;;;;;;;;;;5099704;28;20073;-87
2021/01/10 00:43:09;;;;;;;49.80;28.58;;;;;;;;;;5100170;28;20036;-87
2021/01/10 00:45:46;;;;;;;50.67;28.65;;;;;;;;;;5099747;28;20034;-86
2021/01/10 00:48:18;;;;;;;56.35;29.85;;;;;;;;;;5099422;28;20040;-87
2021/01/10 00:50:49;;;;;;;55.33;28.73;;;;;;;;;;5078399;28;20041;-87
2021/01/10 00:56:17;;;;;;;53.15;28.85;;;;;;;;;;5078787;28;20040;-87
2021/01/10 00:58:55;;;;;;;53.40;30.10;;;;;;;;;;5061630;28;20029;-87
2021/01/10 01:01:49;;;;;;;50.15;29.90;;;;;;;;;;5061382;28;20037;-87
2021/01/10 01:04:40;;;;;;;;;;;;;;;;;;;;;
2021/01/10 01:07:19;;;;;;;58.85;31.60;;;;;;;;;;5079880;28;20511;-87
2021/01/10 01:10:04;;;;;;;58.53;30.02;;;;;;;;;;5061968;28;20051;-88
2021/01/10 01:15:27;;;;;;;54.17;30.40;;;;;;;;;;5075166;28;20174;-88
2021/01/10 01:18:18;;;;;;;54.80;31.15;;;;;;;;;;5060135;28;20060;-88
2021/01/10 01:20:52;;;;;;;58.08;30.10;;;;;;;;;;5063087;28;20028;-89
2021/01/10 01:23:33;;;;;;;52.40;28.27;;;;;;;;;;5100641;28;20077;-88
2021/01/10 01:26:08;;;;;;;56.35;29.33;;;;;;;;;;5101313;28;20067;-88
2021/01/10 01:28:37;;;;;;;52.63;30.17;;;;;;;;;;5101478;28;20023;-88
2021/01/10 01:31:32;;;;;;;58.78;29.83;;;;;;;;;;5101265;28;20134;-88
2021/01/10 01:34:33;;;;;;;55.72;30.02;;;;;;;;;;5098803;28;20071;-88
2021/01/10 01:40:26;;;;;;;56.03;28.83;;;;;;;;;;5017383;28;20041;-88
2021/01/10 01:42:52;;;;;;;58.65;30.10;;;;;;;;;;5097590;28;20044;-88
2021/01/10 01:45:36;;;;;;;54.47;29.10;;;;;;;;;;5101238;28;20023;-88
2021/01/10 01:48:05;;;;;;;54.92;27.80;;;;;;;;;;5097888;28;20055;-88
2021/01/10 01:53:35;;;;;;;53.40;26.10;;;;;;;;;;5098256;28;20024;-88
2021/01/10 01:56:04;;;;;;;55.50;28.20;;;;;;;;;;5076616;28;20044;-88
2021/01/10 01:58:33;;;;;;;;;;;;;;;;;;5059589;28;20076;-88
2021/01/10 02:01:13;;;;;;;53.78;29.33;;;;;;;;;;5076854;28;20267;-88
2021/01/10 02:03:50;;;;;;;55.85;29.13;;;;;;;;;;5059641;28;20055;-88
2021/01/10 02:06:42;;;;;;;50.92;27.70;;;;;;;;;;5059732;28;20144;-88
2021/01/10 02:09:19;;;;;;;50.38;26.10;;;;;;;;;;5059494;28;20028;-87
2021/01/10 02:12:08;;;;;;;54.25;28.27;;;;;;;;;;5059827;28;20033;-88
2021/01/10 02:14:37;;;;;;;;;;;;;;;;;;5060590;28;20096;-88
2021/01/10 02:17:26;;;;;;;54.67;29.27;;;;;;;;;;5076186;28;19913;-88
2021/01/10 02:20:17;;;;;;;50.08;27.13;;;;;;;;;;5076059;28;20036;-88
2021/01/10 02:23:09;;;;;;;51.22;26.42;;;;;;;;;;5068366;28;20060;-88
2021/01/10 02:25:42;;;;;;;52.65;26.52;;;;;;;;;;5064725;28;20071;-88
2021/01/10 02:28:19;;;;;;;50.45;25.35;;;;;;;;;;5095678;28;20036;-87
2021/01/10 02:30:46;;;;;;;50.40;27.30;;;;;;;;;;5096869;28;20032;-87
2021/01/10 02:33:15;;;;;;;58.60;29.63;;;;;;;;;;5098167;28;20092;-88
2021/01/10 02:35:54;;;;;;;49.97;27.17;;;;;;;;;;5118789;28;20031;-88
2021/01/10 02:38:39;;;;;;;50.20;26.05;;;;;;;;;;5100428;28;20439;-88
2021/01/10 02:41:41;;;;;;;46.83;25.35;;;;;;;;;;5118946;28;20035;-88
2021/01/10 02:44:26;;;;;;;50.30;27.67;;;;;;;;;;5118999;28;20031;-87
2021/01/10 02:47:13;;;;;;;49.78;25.02;;;;;;;;;;5096658;28;20028;-89
2021/01/10 02:50:02;;;;;;;48.72;26.80;;;;;;;;;;5097565;28;20035;-88
2021/01/10 02:52:44;;;;;;;48.78;25.70;;;;;;;;;;5076380;28;20089;-88
2021/01/10 02:55:23;;;;;;;;;;;;;;;;;;;;;
2021/01/10 02:58:10;;;;;;;57.78;27.25;;;;;;;;;;5076644;28;20324;-88
2021/01/10 03:03:53;;;;;;;42.30;24.02;;;;;;;;;;5031302;28;20493;-88
2021/01/10 03:09:43;;;;;;;46.75;23.70;;;;;;;;;;4996968;28;20059;-88
2021/01/10 03:12:19;;;;;;;47.72;24.20;;;;;;;;;;5059020;28;20094;-89
2021/01/10 03:14:49;;;;;;;50.95;26.08;;;;;;;;;;5058770;28;20029;-89
2021/01/10 03:17:35;;;;;;;47.70;24.17;;;;;;;;;;5058924;28;20130;-89
2021/01/10 03:20:04;;;;;;;47.55;26.35;;;;;;;;;;5058820;28;20055;-90
2021/01/10 03:22:30;;;;;;;50.63;25.60;;;;;;;;;;5060356;28;20078;-88
2021/01/10 03:24:56;;;;;;;49.63;25.00;;;;;;;;;;5096279;28;20059;-88
2021/01/10 03:27:22;;;;;;;49.55;26.15;;;;;;;;;;5096844;28;20020;-89
2021/01/10 03:29:51;;;;;;;48.97;25.40;;;;;;;;;;5097356;28;20028;-88
2021/01/10 03:32:20;;;;;;;48.58;25.55;;;;;;;;;;5097008;28;20028;-90
2021/01/10 03:34:49;;;;;;;47.50;24.60;;;;;;;;;;5096484;28;20040;-88
2021/01/10 03:37:18;;;;;;;52.53;27.17;;;;;;;;;;5096659;28;20031;-89
2021/01/10 03:39:47;;;;;;;53.10;28.13;;;;;;;;;;5097350;28;20336;-89
2021/01/10 03:42:23;;;;;;;47.05;25.23;;;;;;;;;;5096284;28;20067;-88
2021/01/10 03:45:15;;;;;;;52.72;27.45;;;;;;;;;;5096346;28;20028;-89
2021/01/10 03:47:49;;;;;;;49.20;25.63;;;;;;;;;;5096619;28;20051;-88
2021/01/10 03:50:30;;;;;;;53.40;27.63;;;;;;;;;;5097695;28;20047;-88
2021/01/10 03:53:01;;;;;;;53.03;25.90;;;;;;;;;;5095763;28;20036;-88
2021/01/10 03:55:32;;;;;;;46.53;23.30;;;;;;;;;;5096200;28;20036;-88
2021/01/10 03:58:33;;;;;;;43.80;23.17;;;;;;;;;;5097021;28;20056;-88
2021/01/10 04:01:07;;;;;;;50.53;25.15;;;;;;;;;;5096836;28;20426;-89
2021/01/10 04:03:44;;;;;;;53.42;27.05;;;;;;;;;;5096791;28;20036;-89
2021/01/10 04:06:13;;;;;;;51.00;25.98;;;;;;;;;;5096359;28;20032;-89
2021/01/10 04:08:45;;;;;;;53.40;27.85;;;;;;;;;;5095578;28;20036;-87
2021/01/10 04:11:11;;;;;;;52.67;26.15;;;;;;;;;;5097577;28;20032;-88
2021/01/10 04:13:37;;;;;;;53.85;26.60;;;;;;;;;;5097145;28;20024;-88
2021/01/10 04:16:09;;;;;;;51.90;26.02;;;;;;;;;;5098017;28;20462;-88
2021/01/10 04:18:48;;;;;;;50.15;26.38;;;;;;;;;;5097520;28;20135;-89
2021/01/10 04:21:29;;;;;;;52.47;25.02;;;;;;;;;;5100221;28;20027;-88
2021/01/10 04:24:03;;;;;;;50.05;26.55;;;;;;;;;;5117890;28;20118;-90
2021/01/10 04:26:33;;;;;;;50.55;25.23;;;;;;;;;;5100538;28;20046;-89
2021/01/10 04:29:09;;;;;;;48.95;25.02;;;;;;;;;;5118317;28;20069;-88
2021/01/10 04:31:55;;;;;;;47.28;25.02;;;;;;;;;;5100034;28;20028;-89
2021/01/10 04:34:29;;;;;;;57.10;28.23;;;;;;;;;;5118312;28;20419;-88
2021/01/10 04:37:02;;;;;;;50.42;26.75;;;;;;;;;;5118160;28;20415;-88
2021/01/10 04:39:31;;;;;;;53.00;27.63;;;;;;;;;;5100191;28;20032;-88
2021/01/10 04:42:06;;;;;;;44.50;24.52;;;;;;;;;;5100210;28;20087;-89
2021/01/10 04:44:35;;;;;;;53.72;27.40;;;;;;;;;;5099734;28;20043;-89
2021/01/10 04:47:08;;;;;;;51.05;25.75;;;;;;;;;;5100075;28;20034;-88
2021/01/10 04:49:55;;;;;;;48.03;25.88;;;;;;;;;;5099479;28;20028;-88
2021/01/10 04:52:22;;;;;;;54.83;26.00;;;;;;;;;;5099209;28;20043;-89
2021/01/10 04:54:50;;;;;;;45.33;23.63;;;;;;;;;;5099690;28;20434;-88
2021/01/10 04:57:30;;;;;;;53.58;26.95;;;;;;;;;;5099101;28;20067;-88
2021/01/10 05:00:02;;;;;;;46.55;26.08;;;;;;;;;;5103118;28;20038;-89
2021/01/10 05:02:32;;;;;;;48.10;24.40;;;;;;;;;;5102719;28;20036;-88
2021/01/10 05:05:04;;;;;;;54.25;27.90;;;;;;;;;;5120777;28;20342;-88
2021/01/10 05:07:35;;;;;;;49.42;24.77;;;;;;;;;;5102982;28;20445;-89
2021/01/10 05:10:06;;;;;;;47.95;23.25;;;;;;;;;;5120940;28;20031;-88
2021/01/10 05:12:40;;;;;;;47.78;26.40;;;;;;;;;;5120221;28;20051;-89
2021/01/10 05:15:08;;;;;;;49.60;26.17;;;;;;;;;;5102698;28;20031;-88
2021/01/10 05:17:37;;;;;;;43.88;24.40;;;;;;;;;;5103233;28;20354;-88
2021/01/10 05:20:10;;;;;;;45.33;24.52;;;;;;;;;;5101906;28;20028;-89
2021/01/10 05:22:48;;;;;;;48.20;26.20;;;;;;;;;;5101960;28;20040;-88
2021/01/10 05:25:14;;;;;;;42.22;23.45;;;;;;;;;;5102898;28;20032;-89
2021/01/10 05:27:40;;;;;;;47.83;25.33;;;;;;;;;;5102898;28;20040;-88
2021/01/10 05:30:07;;;;;;;50.28;26.73;;;;;;;;;;5119984;28;20026;-89
2021/01/10 05:32:33;;;;;;;47.35;25.42;;;;;;;;;;5102007;28;20042;-89
2021/01/10 05:35:02;;;;;;;50.60;26.20;;;;;;;;;;5102458;28;20443;-89
2021/01/10 05:37:57;;;;;;;43.75;23.60;;;;;;;;;;5101447;28;20032;-89
2021/01/10 05:40:39;;;;;;;49.33;23.73;;;;;;;;;;5110727;28;20050;-89
2021/01/10 05:43:08;;;;;;;49.58;25.67;;;;;;;;;;5120075;28;20447;-89
2021/01/10 05:45:35;;;;;;;45.40;23.95;;;;;;;;;;5102159;28;20035;-88
2021/01/10 05:48:14;;;;;;;49.25;25.73;;;;;;;;;;5102160;28;20028;-89
2021/01/10 05:50:40;;;;;;;;;;;;;;;;;;5101845;28;20058;-89
2021/01/10 05:53:14;;;;;;;53.67;26.90;;;;;;;;;;5102163;28;19915;-89
2021/01/10 05:55:53;;;;;;;46.25;25.85;;;;;;;;;;5103301;28;20127;-89
2021/01/10 05:58:34;;;;;;;59.20;26.55;;;;;;;;;;5101694;28;20085;-89
2021/01/10 06:01:15;;;;;;;41.97;23.35;;;;;;;;;;5102100;28;20057;-89
2021/01/10 06:04:02;;;;;;;49.53;26.95;;;;;;;;;;5103269;28;20031;-89
2021/01/10 06:06:43;;;;;;;51.97;26.73;;;;;;;;;;5120977;28;20028;-89
2021/01/10 06:09:11;;;;;;;47.85;23.40;;;;;;;;;;5103031;28;20042;-89
2021/01/10 06:11:45;;;;;;;52.00;26.10;;;;;;;;;;5102794;28;20346;-89
2021/01/10 06:14:18;;;;;;;52.20;25.92;;;;;;;;;;5103411;28;20031;-88
2021/01/10 06:16:54;;;;;;;46.58;25.60;;;;;;;;;;5103693;28;20027;-89
2021/01/10 06:19:39;;;;;;;49.45;27.75;;;;;;;;;;5106550;28;20034;-89
2021/01/10 06:22:15;;;;;;;48.80;24.65;;;;;;;;;;5112437;28;20111;-89
2021/01/10 06:24:44;;;;;;;57.85;26.40;;;;;;;;;;5121268;28;20031;-89
2021/01/10 06:27:12;;;;;;;54.28;27.75;;;;;;;;;;5139292;28;20026;-89
2021/01/10 06:29:46;;;;;;;49.63;26.67;;;;;;;;;;5139399;28;20027;-88
2021/01/10 06:32:15;;;;;;;49.00;24.23;;;;;;;;;;5139208;28;20083;-87
2021/01/10 06:34:42;;;;;;;51.42;26.48;;;;;;;;;;5121372;28;20091;-87
2021/01/10 06:37:10;;;;;;;50.20;25.13;;;;;;;;;;5120316;28;20031;-89
2021/01/10 06:39:46;;;;;;;59.88;29.17;;;;;;;;;;5138884;28;20041;-88
2021/01/10 06:42:15;;;;;;;54.13;27.42;;;;;;;;;;5138989;28;20054;-89
2021/01/10 06:44:52;;;;;;;55.67;27.60;;;;;;;;;;5138947;28;20016;-87
2021/01/10 06:47:22;;;;;;;60.65;27.45;;;;;;;;;;5121225;28;20064;-88
2021/01/10 06:49:50;;;;;;;54.70;29.02;;;;;;;;;;5138709;28;20023;-88
2021/01/10 06:52:18;;;;;;;53.55;28.75;;;;;;;;;;5120420;28;20406;-88
2021/01/10 06:54:45;;;;;;;49.87;26.40;;;;;;;;;;5119964;28;20035;-89
2021/01/10 06:57:12;;;;;;;55.38;28.08;;;;;;;;;;5119071;28;20336;-89
2021/01/10 06:59:57;;;;;;;54.70;26.70;;;;;;;;;;5136711;28;20023;-89
2021/01/10 07:02:23;;;;;;;55.60;28.38;;;;;;;;;;5118366;28;20059;-89
2021/01/10 07:04:54;;;;;;;53.75;27.70;;;;;;;;;;5110541;28;20024;-87
2021/01/10 07:07:41;;;;;;;56.35;27.08;;;;;;;;;;5114033;28;20038;-87
2021/01/10 07:10:23;;;;;;;59.38;29.50;;;;;;;;;;5112534;28;20044;-89
2021/01/10 07:12:50;;;;;;;54.00;27.33;;;;;;;;;;5109644;28;20035;-88
2021/01/10 07:15:25;;;;;;;58.75;28.08;;;;;;;;;;5103582;28;20036;-88
2021/01/10 07:18:15;;;;;;;61.78;31.52;;;;;;;;;;5102880;28;20131;-88
2021/01/10 07:20:42;;;;;;;70.50;31.20;;;;;;;;;;5102090;28;20028;-88
2021/01/10 07:23:44;;;;;;;63.28;32.03;;;;;;;;;;5103622;28;20083;-88
2021/01/10 07:26:30;;;;;;;59.75;31.13;;;;;;;;;;5045286;28;20215;-87
2021/01/10 07:29:02;;;;;;;65.95;32.22;;;;;;;;;;5099120;28;20036;-88
2021/01/10 07:31:31;;;;;;;65.53;31.65;;;;;;;;;;5102887;28;20032;-88
2021/01/10 07:34:25;;;;;;;59.97;28.20;;;;;;;;;;5081098;28;20068;-88
2021/01/10 07:36:55;;;;;;;57.15;27.60;;;;;;;;;;5062285;28;20037;-88
2021/01/10 07:39:23;;;;;;;65.97;32.13;;;;;;;;;;5063159;28;20024;-88
2021/01/10 07:41:49;;;;;;;62.88;31.85;;;;;;;;;;5062291;28;20036;-88
2021/01/10 07:44:20;;;;;;;57.38;30.55;;;;;;;;;;5060093;28;20039;-88
2021/01/10 07:46:57;;;;;;;63.15;31.25;;;;;;;;;;5059629;28;20086;-88
2021/01/10 07:49:29;;;;;;;64.68;29.85;;;;;;;;;;5060248;28;20090;-88
2021/01/10 07:51:58;;;;;;;61.80;29.92;;;;;;;;;;5059502;28;20032;-87
2021/01/10 07:54:43;;;;;;;68.43;31.38;;;;;;;;;;5076231;28;20083;-88
2021/01/10 07:57:43;;;;;;;64.07;31.60;;;;;;;;;;5059246;28;20040;-88
2021/01/10 08:00:11;;;;;;;66.70;31.65;;;;;;;;;;5096005;28;20064;-87
2021/01/10 08:02:56;;;;;;;64.85;30.38;;;;;;;;;;5095532;28;20048;-88
2021/01/10 08:05:30;;;;;;;63.95;30.20;;;;;;;;;;5095938;28;20028;-88
2021/01/10 08:08:10;;;;;;;69.97;31.10;;;;;;;;;;5096787;28;20024;-88
2021/01/10 08:10:52;;;;;;;61.47;29.75;;;;;;;;;;5097048;28;20036;-89
2021/01/10 08:13:52;;;;;;;70.68;30.85;;;;;;;;;;5097205;28;20038;-88
2021/01/10 08:16:24;;;;;;;69.68;32.72;;;;;;;;;;5096869;28;20024;-88
2021/01/10 08:19:02;;;;;;;70.68;32.28;;;;;;;;;;5099195;28;20462;-88
2021/01/10 08:21:29;;;;;;;65.20;30.83;;;;;;;;;;5107769;28;20043;-88
2021/01/10 08:24:20;;;;;;;62.88;30.77;;;;;;;;;;5116808;28;20031;-89
2021/01/10 08:26:52;;;;;;;61.28;31.05;;;;;;;;;;5115438;28;20034;-88
2021/01/10 08:29:39;;;;;;;63.13;30.95;;;;;;;;;;5117322;28;20350;-88
2021/01/10 08:32:08;;;;;;;65.53;32.58;;;;;;;;;;5099457;28;20032;-88
2021/01/10 08:34:47;;;;;;;63.60;32.00;;;;;;;;;;5101660;28;20443;-89
2021/01/10 08:37:23;;;;;;;58.95;30.55;;;;;;;;;;5102245;28;20088;-88
2021/01/10 08:40:08;;;;;;;61.42;30.48;;;;;;;;;;5120557;28;20331;-88
2021/01/10 08:42:35;;;;;;;61.28;28.88;;;;;;;;;;5098718;28;20040;-89
2021/01/10 08:45:26;;;;;;;69.38;31.65;;;;;;;;;;5100925;28;20024;-89
2021/01/10 08:48:21;;;;;;;60.30;32.58;;;;;;;;;;5102057;28;20081;-89
2021/01/10 08:50:53;;;;;;;63.05;31.85;;;;;;;;;;5111169;28;20331;-88
2021/01/10 08:53:23;;;;;;;64.85;31.52;;;;;;;;;;5099634;28;20068;-90
2021/01/10 08:55:55;;;;;;;61.08;28.65;;;;;;;;;;5101157;28;20032;-89
2021/01/10 08:58:23;;;;;;;57.25;28.75;;;;;;;;;;5102297;28;20219;-89
2021/01/10 09:00:54;;;;;;;59.87;29.57;;;;;;;;;;5119978;28;20149;-89
2021/01/10 09:03:20;;;;;;;64.90;30.17;;;;;;;;;;5101601;28;20362;-89
2021/01/10 09:05:49;;;;;;;61.22;29.65;;;;;;;;;;5101723;28;20066;-89
2021/01/10 09:08:21;;;;;;;62.90;30.88;;;;;;;;;;5099575;28;20031;-89
2021/01/10 09:10:53;;;;;;;58.63;30.17;;;;;;;;;;5093212;28;20038;-90
2021/01/10 09:13:22;;;;;;;62.20;30.98;;;;;;;;;;5097512;28;20533;-89
2021/01/10 09:15:54;;;;;;;59.65;30.00;;;;;;;;;;5119540;28;20047;-89
2021/01/10 09:18:28;;;;;;;61.03;30.02;;;;;;;;;;5115276;28;20354;-90
2021/01/10 09:20:54;;;;;;;61.38;29.83;;;;;;;;;;5101340;28;20024;-90
2021/01/10 09:23:29;;;;;;;58.22;29.70;;;;;;;;;;5099651;28;20040;-89
2021/01/10 09:25:58;;;;;;;65.93;30.52;;;;;;;;;;5100861;28;20067;-90
2021/01/10 09:28:31;;;;;;;58.33;29.75;;;;;;;;;;5119957;28;20027;-91
2021/01/10 09:30:58;;;;;;;56.33;28.67;;;;;;;;;;5120280;28;20418;-90
2021/01/10 09:33:39;;;;;;;59.40;28.63;;;;;;;;;;5122513;28;20027;-88
2021/01/10 09:36:08;;;;;;;55.65;29.00;;;;;;;;;;5119652;28;20019;-89
2021/01/10 09:38:36;;;;;;;63.25;30.42;;;;;;;;;;5099104;28;20422;-90
2021/01/10 09:41:09;;;;;;;57.25;30.05;;;;;;;;;;5098949;28;20074;-90
2021/01/10 09:43:42;;;;;;;64.63;31.42;;;;;;;;;;5097707;28;20389;-90
2021/01/10 09:46:27;;;;;;;61.42;30.00;;;;;;;;;;5098651;28;20028;-90
2021/01/10 09:49:04;;;;;;;55.88;29.38;;;;;;;;;;5098912;28;20036;-91
2021/01/10 09:51:39;;;;;;;58.15;29.70;;;;;;;;;;5099930;28;20032;-89
2021/01/10 09:54:11;;;;;;;57.90;29.25;;;;;;;;;;5100526;28;20099;-89
2021/01/10 09:56:41;;;;;;;54.20;27.23;;;;;;;;;;5098412;28;20081;-89
2021/01/10 09:59:07;;;;;;;;;;;;;;;;;;5099750;28;20039;-90
2021/01/10 10:01:41;;;;;;;57.38;28.17;;;;;;;;;;5099233;28;20227;-89
2021/01/10 10:04:07;;;;;;;60.00;30.90;;;;;;;;;;5098474;28;20083;-90
2021/01/10 10:06:49;;;;;;;61.00;29.85;;;;;;;;;;5098827;28;20024;-90
2021/01/10 10:09:18;;;;;;;59.03;28.90;;;;;;;;;;5099857;28;20054;-91
2021/01/10 10:11:44;;;;;;;54.00;28.90;;;;;;;;;;5099074;28;20032;-90
2021/01/10 10:14:13;;;;;;;54.95;30.25;;;;;;;;;;5098882;28;20032;-89
2021/01/10 10:16:44;;;;;;;63.85;30.38;;;;;;;;;;5098732;28;20038;-90
2021/01/10 10:19:10;;;;;;;54.88;28.63;;;;;;;;;;5099959;28;20035;-89
2021/01/10 10:21:59;;;;;;;55.47;28.88;;;;;;;;;;5100613;28;20032;-88
2021/01/10 10:24:25;;;;;;;57.10;27.58;;;;;;;;;;5099025;28;20341;-89
2021/01/10 10:27:02;;;;;;;55.35;28.75;;;;;;;;;;5099847;28;20043;-90
2021/01/10 10:29:31;;;;;;;55.38;28.63;;;;;;;;;;5098547;28;20040;-91
2021/01/10 10:31:57;;;;;;;56.70;30.63;;;;;;;;;;5099842;28;20028;-89
2021/01/10 10:34:24;;;;;;;54.13;28.20;;;;;;;;;;5099192;28;20031;-90
2021/01/10 10:36:50;;;;;;;56.50;28.83;;;;;;;;;;5097973;28;20036;-90
2021/01/10 10:39:19;;;;;;;52.42;28.13;;;;;;;;;;5099535;28;20027;-88
2021/01/10 10:41:48;;;;;;;58.63;30.23;;;;;;;;;;5099388;28;20061;-88
2021/01/10 10:44:14;;;;;;;57.22;30.88;;;;;;;;;;5097262;28;20118;-88
2021/01/10 10:46:41;;;;;;;60.55;30.08;;;;;;;;;;5098147;28;20398;-88
2021/01/10 10:49:07;;;;;;;53.58;29.40;;;;;;;;;;5097985;28;20062;-88
2021/01/10 10:51:33;;;;;;;59.15;29.75;;;;;;;;;;5097994;28;20039;-89
2021/01/10 10:53:59;;;;;;;50.63;28.73;;;;;;;;;;5093671;28;20016;-88
2021/01/10 10:56:40;;;;;;;56.22;29.48;;;;;;;;;;5099859;28;20055;-88
2021/01/10 10:59:06;;;;;;;50.50;27.48;;;;;;;;;;5100334;28;20043;-90
2021/01/10 11:01:39;;;;;;;53.58;28.05;;;;;;;;;;5097950;28;20051;-89
2021/01/10 11:04:05;;;;;;;48.67;27.30;;;;;;;;;;5081220;28;20032;-89
2021/01/10 11:06:31;;;;;;;51.35;27.77;;;;;;;;;;5081208;28;20042;-89
2021/01/10 11:08:57;;;;;;;51.42;24.83;;;;;;;;;;5081606;28;20031;-90
2021/01/10 11:11:23;;;;;;;49.60;26.10;;;;;;;;;;5080745;28;20148;-89
2021/01/10 11:14:10;;;;;;;45.58;23.27;;;;;;;;;;5081561;28;20043;-89
2021/01/10 11:16:46;;;;;;;45.47;25.67;;;;;;;;;;5098673;28;20031;-89
2021/01/10 11:19:14;;;;;;;43.95;24.30;;;;;;;;;;5081375;28;20039;-90
2021/01/10 11:21:44;;;;;;;51.22;27.27;;;;;;;;;;5082140;28;20036;-90
2021/01/10 11:24:13;;;;;;;43.25;23.52;;;;;;;;;;5080132;28;20050;-89
2021/01/10 11:26:48;;;;;;;46.17;24.15;;;;;;;;;;5081717;28;20031;-90
2021/01/10 11:29:25;;;;;;;42.58;23.65;;;;;;;;;;5081933;28;20040;-88
2021/01/10 11:32:17;;;;;;;41.70;23.40;;;;;;;;;;5100192;28;20042;-89
2021/01/10 11:34:43;;;;;;;40.90;22.70;;;;;;;;;;5073360;28;20047;-89
2021/01/10 11:37:23;;;;;;;39.95;21.42;;;;;;;;;;5079601;28;20052;-90
2021/01/10 11:39:49;;;;;;;37.53;19.95;;;;;;;;;;5099581;28;20020;-88
2021/01/10 11:42:21;;;;;;;40.72;21.63;;;;;;;;;;5097588;28;20032;-87
2021/01/10 11:44:48;;;;;;;35.17;20.50;;;;;;;;;;5079442;28;20154;-89
2021/01/10 11:47:14;;;;;;;35.78;19.73;;;;;;;;;;5111096;28;20112;-89
2021/01/10 11:49:40;;;;;;;36.40;20.58;;;;;;;;;;5099643;28;20093;-88
2021/01/10 11:52:06;;;;;;;38.40;19.98;;;;;;;;;;5097816;28;20066;-90
2021/01/10 11:54:35;;;;;;;36.25;19.02;;;;;;;;;;5117123;28;20031;-90
2021/01/10 11:57:01;;;;;;;30.83;18.27;;;;;;;;;;5099281;28;20028;-89
2021/01/10 11:59:38;;;;;;;35.03;17.73;;;;;;;;;;5116694;28;20020;-90
2021/01/10 12:02:08;;;;;;;32.40;18.30;;;;;;;;;;5096389;28;20034;-90
2021/01/10 12:05:01;;;;;;;32.72;19.63;;;;;;;;;;5099192;28;20066;-92
2021/01/10 12:07:28;;;;;;;34.13;18.23;;;;;;;;;;5102152;28;20032;-91
2021/01/10 12:09:54;;;;;;;34.67;18.30;;;;;;;;;;5103547;28;20035;-90
2021/01/10 12:12:20;;;;;;;37.97;18.45;;;;;;;;;;5104330;28;20330;-90
2021/01/10 12:14:46;;;;;;;37.72;19.02;;;;;;;;;;5104794;28;20039;-88
2021/01/10 12:17:12;;;;;;;34.08;18.55;;;;;;;;;;5105140;28;20034;-90
2021/01/10 12:20:01;;;;;;;35.13;19.42;;;;;;;;;;5106534;28;20053;-91
2021/01/10 12:22:27;;;;;;;33.30;18.95;;;;;;;;;;5103831;28;20044;-89
2021/01/10 12:24:56;;;;;;;30.55;19.35;;;;;;;;;;5121913;28;20054;-89
2021/01/10 12:27:22;;;;;;;31.60;19.02;;;;;;;;;;5121079;28;20032;-89
2021/01/10 12:29:48;;;;;;;35.30;18.75;;;;;;;;;;5120828;28;20027;-90
2021/01/10 12:32:17;;;;;;;27.95;17.95;;;;;;;;;;5104363;28;20122;-91
2021/01/10 12:34:43;;;;;;;33.88;18.50;;;;;;;;;;5100716;28;20032;-90
2021/01/10 12:37:11;;;;;;;31.60;19.33;;;;;;;;;;5100121;28;20036;-91
2021/01/10 12:39:58;;;;;;;30.65;18.90;;;;;;;;;;5103067;28;20020;-88
2021/01/10 12:42:33;;;;;;;37.35;18.75;;;;;;;;;;5088017;28;20032;-89
2021/01/10 12:45:00;;;;;;;32.88;18.63;;;;;;;;;;5116283;28;20028;-89
2021/01/10 12:47:26;;;;;;;33.25;19.17;;;;;;;;;;5098074;28;20028;-90
2021/01/10 12:49:58;;;;;;;36.97;18.58;;;;;;;;;;5100577;28;20028;-91
2021/01/10 12:52:24;;;;;;;35.58;19.20;;;;;;;;;;5099532;28;20462;-89
2021/01/10 12:55:36;;;;;;;31.08;18.85;;;;;;;;;;5102875;28;20030;-89
2021/01/10 12:58:06;;;;;;;34.95;17.92;;;;;;;;;;5030258;28;20036;-90
2021/01/10 13:00:33;;;;;;;30.60;16.40;;;;;;;;;;5095592;28;20039;-89
2021/01/10 13:03:02;;;;;;;30.38;17.55;;;;;;;;;;5120521;28;20043;-90
2021/01/10 13:05:36;;;;;;;27.50;16.30;;;;;;;;;;5099714;28;20028;-90
2021/01/10 13:08:02;;;;;;;24.38;15.77;;;;;;;;;;5099221;28;20126;-88
2021/01/10 13:10:29;;;;;;;26.92;17.25;;;;;;;;;;5099463;28;20073;-86
2021/01/10 13:12:55;;;;;;;34.65;17.80;;;;;;;;;;5098645;28;20028;-88
2021/01/10 13:15:21;;;;;;;30.17;17.42;;;;;;;;;;5099479;28;20028;-89
2021/01/10 13:17:53;;;;;;;29.27;17.92;;;;;;;;;;5117386;28;20115;-88
2021/01/10 13:20:20;;;;;;;35.53;20.23;;;;;;;;;;5096732;28;20034;-87
2021/01/10 13:22:46;;;;;;;30.83;18.05;;;;;;;;;;5099141;28;20024;-90
2021/01/10 13:25:13;;;;;;;27.63;17.75;;;;;;;;;;5099369;28;20027;-87
2021/01/10 13:27:39;;;;;;;29.67;18.83;;;;;;;;;;5100108;28;20029;-89
2021/01/10 13:30:06;;;;;;;27.95;17.05;;;;;;;;;;5099879;28;20058;-88
2021/01/10 13:32:33;;;;;;;36.22;20.55;;;;;;;;;;5098629;28;20035;-89
2021/01/10 13:34:59;;;;;;;33.67;19.00;;;;;;;;;;5100985;28;20027;-87
2021/01/10 13:37:25;;;;;;;33.47;19.98;;;;;;;;;;5098769;28;20088;-89
2021/01/10 13:39:51;;;;;;;35.67;20.25;;;;;;;;;;5099581;28;20343;-89
2021/01/10 13:42:18;;;;;;;30.67;18.65;;;;;;;;;;5119858;28;20022;-88
2021/01/10 13:44:45;;;;;;;29.90;17.65;;;;;;;;;;5101572;28;20024;-89
2021/01/10 13:47:11;;;;;;;35.67;19.20;;;;;;;;;;5100100;28;20028;-89
2021/01/10 13:49:38;;;;;;;30.77;19.42;;;;;;;;;;5101609;28;20156;-88
2021/01/10 13:52:04;;;;;;;36.25;19.00;;;;;;;;;;5101680;28;20035;-88
2021/01/10 13:54:31;;;;;;;34.30;18.92;;;;;;;;;;5102249;28;20027;-88
2021/01/10 13:56:58;;;;;;;31.95;17.83;;;;;;;;;;5102729;28;20070;-89
2021/01/10 13:59:24;;;;;;;28.15;18.55;;;;;;;;;;5101305;28;20446;-88
2021/01/10 14:01:51;;;;;;;33.15;18.35;;;;;;;;;;5097615;28;20062;-89
2021/01/10 14:04:18;;;;;;;30.38;19.48;;;;;;;;;;5098655;28;20063;-89
2021/01/10 14:06:44;;;;;;;32.05;17.92;;;;;;;;;;5096592;28;20059;-89
2021/01/10 14:09:11;;;;;;;30.08;18.38;;;;;;;;;;5097685;28;20055;-89
2021/01/10 14:11:40;;;;;;;33.65;19.27;;;;;;;;;;5097868;28;20027;-89
2021/01/10 14:14:07;;;;;;;38.70;18.60;;;;;;;;;;5096274;28;20453;-88
2021/01/10 14:16:34;;;;;;;33.50;19.13;;;;;;;;;;5098001;28;20131;-89
2021/01/10 14:19:01;;;;;;;37.63;17.50;;;;;;;;;;5097625;28;20093;-88
2021/01/10 14:21:28;;;;;;;31.52;17.55;;;;;;;;;;5093069;28;20062;-91
2021/01/10 14:23:55;;;;;;;30.95;17.90;;;;;;;;;;5100453;28;20044;-89
2021/01/10 14:26:48;;;;;;;29.15;17.02;;;;;;;;;;5101656;28;20062;-89
2021/01/10 14:29:15;;;;;;;30.85;16.95;;;;;;;;;;5101586;28;20035;-89
2021/01/10 14:31:45;;;;;;;43.47;19.55;;;;;;;;;;5101750;28;20339;-89
2021/01/10 14:34:11;;;;;;;32.58;17.77;;;;;;;;;;5101330;28;20036;-88
2021/01/10 14:36:38;;;;;;;29.10;16.63;;;;;;;;;;5084456;28;20055;-88
2021/01/10 14:39:04;;;;;;;32.22;17.08;;;;;;;;;;5102235;28;20024;-88
2021/01/10 14:41:31;;;;;;;34.50;17.05;;;;;;;;;;5101291;28;20126;-90
2021/01/10 14:43:57;;;;;;;29.02;16.75;;;;;;;;;;5101838;28;20028;-89
2021/01/10 14:46:24;;;;;;;32.53;16.38;;;;;;;;;;5101384;28;20079;-89
2021/01/10 14:48:51;;;;;;;26.45;15.20;;;;;;;;;;5101125;28;20092;-89
2021/01/10 14:51:19;;;;;;;29.23;16.30;;;;;;;;;;5102059;28;20030;-89
2021/01/10 14:53:53;;;;;;;27.05;16.08;;;;;;;;;;5102866;28;20118;-88
2021/01/10 14:56:20;;;;;;;27.75;15.23;;;;;;;;;;5098686;28;20039;-89
2021/01/10 14:58:47;;;;;;;26.38;14.50;;;;;;;;;;5097975;28;20154;-88
2021/01/10 15:01:14;;;;;;;36.03;16.73;;;;;;;;;;5101689;28;20451;-89
2021/01/10 15:03:40;;;;;;;24.70;16.05;;;;;;;;;;5100300;28;20094;-89
2021/01/10 15:06:09;;;;;;;32.15;16.67;;;;;;;;;;5119296;28;20033;-89
2021/01/10 15:08:36;;;;;;;23.90;14.85;;;;;;;;;;5118503;28;20024;-90
2021/01/10 15:11:02;;;;;;;26.63;15.50;;;;;;;;;;5101179;28;20039;-87
2021/01/10 15:13:28;;;;;;;32.83;15.77;;;;;;;;;;5100880;28;20031;-89
2021/01/10 15:15:54;;;;;;;26.20;16.60;;;;;;;;;;5101331;28;20035;-89